Time;durP1;ratioP1;P1;durP2;ratioP2;P2;SDS_P1;SDS_P2;PMS_P1;PMS_P2;Temp;Humidity;BMP_temperature;BMP_pressure;BME280_temperature;BME280_humidity;BME280_pressure;Samples;Min_cycle;Max_cycle;Signal;HPM_P1;HPM_P2
2021/11/01 00:01:44;;;;;;;;;;;;;;;5.89;60.88;94042.00;5003873;28;19987;-66
2021/11/01 00:04:10;;;;;;;;;;;;;;;5.94;61.18;94053.66;5019944;28;20181;-66
2021/11/01 00:06:35;;;;;;;;;;;;;;;5.97;60.58;94058.56;5001101;28;19927;-67
2021/11/01 00:09:00;;;;;;;;;;;;;;;5.64;61.79;94060.84;5004678;28;19983;-65
2021/11/01 00:11:25;;;;;;;;;;;;;;;5.62;61.42;94079.50;5004477;28;19922;-65
2021/11/01 00:13:51;;;;;;;;;;;;;;;5.63;62.02;94081.13;5004485;28;20203;-66
2021/11/01 00:16:16;;;;;;;;;;;;;;;6.36;60.45;94066.25;5004464;28;19917;-66
2021/11/01 00:18:41;;;;;;;;;;;;;;;6.60;59.52;94075.63;5003540;28;20039;-65
2021/11/01 00:21:07;;;;;;;;;;;;;;;6.43;59.17;94061.03;5004724;28;19963;-66
2021/11/01 00:23:32;;;;;;;;;;;;;;;6.55;58.99;94061.34;5004505;28;20380;-66
2021/11/01 00:25:58;;;;;;;;;;;;;;;6.71;58.42;94058.44;5004557;28;19927;-67
2021/11/01 00:28:23;;;;;;;;;;;;;;;6.90;57.63;94066.69;5004359;28;19949;-66
2021/11/01 00:30:48;;;;;;;;;;;;;;;6.88;57.63;94074.03;5003669;28;20413;-65
2021/11/01 00:33:13;;;;;;;;;;;;;;;7.16;56.93;94059.94;5004475;28;19917;-66
2021/11/01 00:35:39;;;;;;;;;;;;;;;7.37;56.99;94066.16;5004216;28;20003;-66
2021/11/01 00:38:04;;;;;;;;;;;;;;;7.38;55.38;94065.97;5004193;28;20519;-66
2021/11/01 00:40:30;;;;;;;;;;;;;;;7.65;56.12;94065.28;5003096;28;20249;-66
2021/11/01 00:42:55;;;;;;;;;;;;;;;7.06;55.59;94070.03;5003950;28;19953;-66
2021/11/01 00:45:20;;;;;;;;;;;;;;;7.48;54.82;94073.53;5003791;28;20446;-66
2021/11/01 00:47:46;;;;;;;;;;;;;;;7.72;55.03;94067.94;5004277;28;19918;-67
2021/11/01 00:50:11;;;;;;;;;;;;;;;7.64;55.10;94074.22;5004311;28;20623;-66
2021/11/01 00:52:36;;;;;;;;;;;;;;;7.75;54.08;94071.00;5000763;28;19972;-66
2021/11/01 00:55:04;;;;;;;;;;;;;;;7.64;54.21;94080.34;5003182;28;19925;-67
2021/11/01 00:57:30;;;;;;;;;;;;;;;7.61;54.06;94079.91;5000367;28;20460;-67
2021/11/01 00:59:56;;;;;;;;;;;;;;;7.51;54.71;94075.81;5002496;28;19991;-67
2021/11/01 01:02:22;;;;;;;;;;;;;;;7.20;56.25;94077.06;5004260;28;19922;-66
2021/11/01 01:04:47;;;;;;;;;;;;;;;7.08;56.28;94086.56;5004606;28;19918;-66
2021/11/01 01:07:12;;;;;;;;;;;;;;;7.38;54.03;94087.13;5003611;28;19917;-66
2021/11/01 01:09:38;;;;;;;;;;;;;;;7.57;54.99;94089.25;5003732;28;19922;-68
2021/11/01 01:12:04;;;;;;;;;;;;;;;7.80;54.70;94073.09;5004249;28;19928;-66
2021/11/01 01:14:31;;;;;;;;;;;;;;;7.31;53.93;94090.78;5003132;28;19933;-67
2021/11/01 01:16:58;;;;;;;;;;;;;;;7.63;53.87;94107.03;5003955;28;20008;-66
2021/11/01 01:19:30;;;;;;;;;;;;;;;7.70;55.08;94125.59;5001730;28;19936;-67
2021/11/01 01:24:35;;;;;;;;;;;;;;;7.59;54.73;94103.16;5004167;28;19933;-68
2021/11/01 01:27:01;;;;;;;;;;;;;;;7.54;55.05;94095.78;4999658;28;19925;-68
2021/11/01 01:29:26;;;;;;;;;;;;;;;7.51;54.92;94090.88;5007441;28;20286;-66
2021/11/01 01:31:51;;;;;;;;;;;;;;;7.52;55.62;94064.19;5007557;28;19921;-65
2021/11/01 01:34:17;;;;;;;;;;;;;;;7.26;54.82;94059.59;5005472;28;19922;-68
2021/11/01 01:36:42;;;;;;;;;;;;;;;7.50;54.52;94062.75;5007440;28;20386;-66
2021/11/01 01:39:07;;;;;;;;;;;;;;;7.65;56.49;94065.28;5006789;28;19948;-66
2021/11/01 01:41:33;;;;;;;;;;;;;;;7.63;56.18;94062.00;5006183;28;19921;-66
2021/11/01 01:44:00;;;;;;;;;;;;;;;7.61;55.53;94075.44;5006869;28;19929;-67
2021/11/01 01:46:26;;;;;;;;;;;;;;;7.79;54.83;94055.59;5005412;28;20406;-66
2021/11/01 01:48:54;;;;;;;;;;;;;;;7.79;54.36;94071.47;5005597;28;20298;-67
2021/11/01 01:51:26;;;;;;;;;;;;;;;7.54;53.39;94075.41;5004992;28;20024;-66
2021/11/01 01:53:52;;;;;;;;;;;;;;;7.87;54.07;94052.75;5006658;28;19917;-67
2021/11/01 01:56:17;;;;;;;;;;;;;;;7.87;53.71;94057.22;5005801;28;20213;-66
2021/11/01 01:58:46;;;;;;;;;;;;;;;6.77;54.39;94070.88;5006603;28;19955;-67
2021/11/01 02:01:14;;;;;;;;;;;;;;;7.22;55.47;94085.66;5006874;28;19948;-67
2021/11/01 02:03:40;;;;;;;;;;;;;;;7.65;53.66;94067.94;5005186;28;20428;-67
2021/11/01 02:06:21;;;;;;;;;;;;;;;7.24;53.22;94065.06;5006456;28;19921;-68
2021/11/01 02:08:54;;;;;;;;;;;;;;;7.76;52.49;94051.44;5007098;28;19961;-67
2021/11/01 02:11:22;;;;;;;;;;;;;;;7.38;54.73;94060.66;5004725;28;19921;-68
2021/11/01 02:13:48;;;;;;;;;;;;;;;7.53;54.66;94076.44;5006435;28;20354;-67
2021/11/01 02:16:14;;;;;;;;;;;;;;;7.14;53.92;94068.06;5011350;28;20127;-66
2021/11/01 02:18:40;;;;;;;;;;;;;;;5.66;59.07;94049.09;5011322;28;20123;-67
2021/11/01 02:21:22;;;;;;;;;;;;;;;7.32;55.70;94050.06;5004990;28;19921;-66
2021/11/01 02:24:00;;;;;;;;;;;;;;;7.33;54.61;94059.63;5004878;28;19960;-67
2021/11/01 02:26:25;;;;;;;;;;;;;;;7.20;55.09;94057.72;5005621;28;19961;-68
2021/11/01 02:28:50;;;;;;;;;;;;;;;7.58;53.61;94059.13;5006535;28;19952;-67
2021/11/01 02:31:17;;;;;;;;;;;;;;;7.55;52.37;94049.72;5004550;28;19922;-66
2021/11/01 02:33:43;;;;;;;;;;;;;;;7.63;53.49;94057.53;5004407;28;19913;-66
2021/11/01 02:36:08;;;;;;;;;;;;;;;7.43;54.64;94052.13;5005277;28;19917;-66
2021/11/01 02:38:33;;;;;;;;;;;;;;;7.27;52.89;94058.56;5005933;28;19960;-68
2021/11/01 02:40:59;;;;;;;;;;;;;;;7.37;53.68;94068.81;5004845;28;19918;-67
2021/11/01 02:43:25;;;;;;;;;;;;;;;7.20;53.96;94057.72;5004136;28;19921;-67
2021/11/01 02:45:50;;;;;;;;;;;;;;;7.31;53.73;94061.66;5004320;28;20278;-67
2021/11/01 02:48:16;;;;;;;;;;;;;;;7.21;54.46;94060.16;5005815;28;20012;-66
2021/11/01 02:50:41;;;;;;;;;;;;;;;7.46;54.04;94057.06;5005750;28;19929;-66
2021/11/01 02:53:06;;;;;;;;;;;;;;;7.63;54.31;94040.81;5005792;28;19941;-67
2021/11/01 02:55:33;;;;;;;;;;;;;;;7.54;53.96;94045.47;5005695;28;20004;-66
2021/11/01 02:57:59;;;;;;;;;;;;;;;7.17;53.68;94043.03;5003987;28;19925;-67
2021/11/01 03:00:25;;;;;;;;;;;;;;;7.28;53.75;94042.50;5005959;28;20044;-67
2021/11/01 03:02:51;;;;;;;;;;;;;;;7.48;54.14;94038.31;5003726;28;19929;-67
2021/11/01 03:05:17;;;;;;;;;;;;;;;7.57;54.55;94039.78;5005627;28;20370;-67
2021/11/01 03:07:43;;;;;;;;;;;;;;;7.83;54.14;94032.16;5005143;28;20437;-66
2021/11/01 03:10:08;;;;;;;;;;;;;;;7.76;54.46;94032.91;5003766;28;19999;-68
2021/11/01 03:12:34;;;;;;;;;;;;;;;7.70;53.88;94031.06;5004282;28;19917;-66
2021/11/01 03:15:02;;;;;;;;;;;;;;;7.99;54.15;94025.66;5004091;28;20324;-66
2021/11/01 03:17:28;;;;;;;;;;;;;;;7.52;56.10;94023.66;5005308;28;19918;-68
2021/11/01 03:20:01;;;;;;;;;;;;;;;7.40;53.95;94028.69;5005122;28;19937;-66
2021/11/01 03:22:27;;;;;;;;;;;;;;;7.80;53.26;94025.41;5003668;28;19921;-66
2021/11/01 03:24:53;;;;;;;;;;;;;;;7.60;54.72;94031.44;5004170;28;19917;-67
2021/11/01 03:27:19;;;;;;;;;;;;;;;7.56;54.69;94034.66;5003538;28;19928;-66
2021/11/01 03:29:44;;;;;;;;;;;;;;;8.02;53.63;94036.69;5004780;28;20024;-67
2021/11/01 03:32:09;;;;;;;;;;;;;;;7.54;54.64;94038.34;5003731;28;19913;-67
2021/11/01 03:34:35;;;;;;;;;;;;;;;7.41;54.47;94039.09;5003291;28;19926;-66
2021/11/01 03:37:04;;;;;;;;;;;;;;;7.35;55.98;94039.06;5003857;28;19917;-68
2021/11/01 03:39:29;;;;;;;;;;;;;;;7.77;53.61;94037.22;5003281;28;19917;-66
2021/11/01 03:41:55;;;;;;;;;;;;;;;7.80;54.97;94043.97;5003287;28;19924;-66
2021/11/01 03:44:26;;;;;;;;;;;;;;;7.87;54.56;94055.41;5003996;28;19937;-66
2021/11/01 03:49:18;;;;;;;;;;;;;;;7.93;54.24;94059.09;5004608;28;20267;-67
2021/11/01 03:51:51;;;;;;;;;;;;;;;8.07;54.16;94062.59;5004648;28;19993;-68
2021/11/01 03:54:17;;;;;;;;;;;;;;;8.21;52.35;94068.72;5004656;28;19917;-65
2021/11/01 03:56:42;;;;;;;;;;;;;;;7.76;54.92;94053.28;4990540;28;19917;-66
2021/11/01 03:59:08;;;;;;;;;;;;;;;8.00;53.36;94078.47;5004389;28;19945;-65
2021/11/01 04:01:40;;;;;;;;;;;;;;;8.09;54.52;94083.59;5004721;28;20210;-68
2021/11/01 04:04:05;;;;;;;;;;;;;;;8.15;53.02;94075.66;5004371;28;19921;-68
2021/11/01 04:06:31;;;;;;;;;;;;;;;8.04;55.21;94071.75;5004306;28;20313;-66
2021/11/01 04:08:58;;;;;;;;;;;;;;;8.46;54.68;94070.00;5004845;28;19949;-67
2021/11/01 04:11:23;;;;;;;;;;;;;;;7.04;55.80;94074.72;5002545;28;20366;-68
2021/11/01 04:13:54;;;;;;;;;;;;;;;6.24;58.60;94073.84;5004639;28;19925;-67
2021/11/01 04:16:22;;;;;;;;;;;;;;;7.19;58.39;94075.44;5003288;28;20079;-67
2021/11/01 04:21:45;;;;;;;;;;;;;;;5.88;60.01;94070.22;4991802;28;19917;-67
2021/11/01 04:24:10;;;;;;;;;;;;;;;7.24;57.55;94069.56;5019596;28;20013;-67
2021/11/01 04:26:36;;;;;;;;;;;;;;;7.41;56.42;94064.75;5003527;28;20012;-68
2021/11/01 04:29:07;;;;;;;;;;;;;;;7.88;54.25;94053.53;5002818;28;20386;-67
2021/11/01 04:31:35;;;;;;;;;;;;;;;6.96;56.49;94059.81;5002795;28;20437;-68
2021/11/01 04:34:07;;;;;;;;;;;;;;;5.77;60.69;94050.41;5004042;28;19921;-65
2021/11/01 04:36:33;;;;;;;;;;;;;;;6.34;58.03;94049.75;5003228;28;19921;-68
2021/11/01 04:41:31;;;;;;;;;;;;;;;6.93;56.85;94042.50;5004526;28;19917;-67
2021/11/01 04:54:36;;;;;;;;;;;;;;;7.64;55.18;94053.03;5003856;28;20328;-66
2021/11/01 04:57:03;;;;;;;;;;;;;;;6.28;59.41;94066.34;4986652;28;20149;-67
2021/11/01 04:59:29;;;;;;;;;;;;;;;6.79;57.65;94067.22;5002458;28;20342;-67
2021/11/01 05:01:55;;;;;;;;;;;;;;;6.67;57.56;94066.94;5009809;28;19924;-68
2021/11/01 05:04:26;;;;;;;;;;;;;;;6.99;56.57;94075.31;5007832;28;20016;-67
2021/11/01 05:07:00;;;;;;;;;;;;;;;6.67;57.05;94082.81;5007641;28;20028;-66
2021/11/01 05:09:54;;;;;;;;;;;;;;;6.36;58.52;94082.13;5006524;28;20406;-65
2021/11/01 05:20:43;;;;;;;;;;;;;;;7.09;55.97;94064.38;5007616;28;20380;-66
2021/11/01 05:22:46;;;;;;;;;;;;;;;6.23;57.63;94070.38;5006162;28;19974;-67
2021/11/01 05:25:50;;;;;;;;;;;;;;;5.97;58.77;94089.44;5007172;28;19913;-68
2021/11/01 05:30:41;;;;;;;;;;;;;;;5.51;60.82;94075.50;5005735;28;19941;-66
2021/11/01 05:35:37;;;;;;;;;;;;;;;6.35;58.05;94070.72;5007203;28;20283;-66
2021/11/01 05:38:03;;;;;;;;;;;;;;;6.84;56.44;94065.63;5006977;28;20966;-67
2021/11/01 05:40:28;;;;;;;;;;;;;;;6.69;57.09;94071.03;5005976;28;19984;-67
2021/11/01 05:42:53;;;;;;;;;;;;;;;6.05;57.93;94059.47;5007404;28;20382;-67
2021/11/01 05:45:19;;;;;;;;;;;;;;;5.63;57.94;94075.84;5007472;28;19952;-65
2021/11/01 05:47:48;;;;;;;;;;;;;;;4.43;62.79;94073.94;5007087;28;19960;-67
2021/11/01 05:50:13;;;;;;;;;;;;;;;5.57;58.40;94071.31;5005502;28;19921;-65
2021/11/01 05:52:41;;;;;;;;;;;;;;;5.86;57.12;94069.63;5007076;28;20051;-68
2021/11/01 05:55:58;;;;;;;;;;;;;;;4.69;60.41;94073.53;5005795;28;20468;-67
2021/11/01 06:15:52;;;;;;;;;;;;;;;4.77;60.65;94091.13;5006578;28;20136;-67
2021/11/01 06:18:17;;;;;;;;;;;;;;;5.03;59.63;94086.41;5005055;28;20075;-68
2021/11/01 06:20:42;;;;;;;;;;;;;;;4.90;60.18;94093.13;5005363;28;20390;-65
2021/11/01 06:23:08;;;;;;;;;;;;;;;4.75;60.21;94097.53;5004811;28;19918;-68
2021/11/01 06:25:33;;;;;;;;;;;;;;;5.32;58.39;94100.66;5005007;28;19917;-66
2021/11/01 06:27:59;;;;;;;;;;;;;;;3.75;63.73;94103.53;5006279;28;20339;-66
2021/11/01 06:30:27;;;;;;;;;;;;;;;4.38;62.84;94114.00;5005930;28;19921;-66
2021/11/01 06:51:17;;;;;;;;;;;;;;;4.51;61.79;94131.03;5005795;28;19932;-67
2021/11/01 07:17:27;;;;;;;;;;;;;;;4.28;60.26;94142.38;5001493;28;19926;-67
2021/11/01 08:23:44;;;;;;;;;;;;;;;4.22;58.78;94224.75;5001185;28;20015;-69
2021/11/01 08:26:08;;;;;;;;;;;;;;;3.80;60.23;94219.66;4989959;28;19956;-68
2021/11/01 09:28:43;;;;;;;;;;;;;;;7.19;50.25;94188.44;5036879;28;19920;-67
2021/11/01 09:36:43;;;;;;;;;;;;;;;7.59;48.77;94182.59;5006258;28;19968;-75
2021/11/01 09:41:52;;;;;;;;;;;;;;;5.60;53.59;94181.84;5007334;28;19959;-73
2021/11/01 09:44:22;;;;;;;;;;;;;;;6.34;52.03;94174.00;5005922;28;20373;-74
2021/11/01 09:46:48;;;;;;;;;;;;;;;5.90;54.47;94165.97;5006867;28;19964;-74
2021/11/01 09:49:16;;;;;;;;;;;;;;;7.11;52.47;94165.59;5005428;28;20290;-73
2021/11/01 09:51:46;;;;;;;;;;;;;;;6.74;51.11;94170.97;5001548;28;20601;-74
2021/11/01 09:54:20;;;;;;;;;;;;;;;6.13;52.50;94176.41;5006918;28;19921;-74
2021/11/01 09:59:18;;;;;;;;;;;;;;;6.47;52.20;94176.75;5006773;28;20012;-74
2021/11/01 10:01:44;;;;;;;;;;;;;;;7.48;49.16;94166.22;5007328;28;19929;-74
2021/11/01 10:04:28;;;;;;;;;;;;;;;7.43;49.72;94173.94;5005490;28;19931;-74
2021/11/01 10:09:40;;;;;;;;;;;;;;;7.14;49.54;94178.41;5006855;28;19972;-75
2021/11/01 10:12:09;;;;;;;;;;;;;;;6.11;50.58;94199.56;5003762;28;19921;-74
2021/11/01 10:14:43;;;;;;;;;;;;;;;6.83;49.29;94180.41;5005206;28;20390;-73
2021/11/01 10:19:56;;;;;;;;;;;;;;;6.95;49.37;94159.56;5004924;28;20046;-75
2021/11/01 10:22:24;;;;;;;;;;;;;;;7.39;47.54;94196.53;5006296;28;19917;-75
2021/11/01 10:24:54;;;;;;;;;;;;;;;7.53;47.31;94169.13;5020463;28;19918;-74
2021/11/01 10:27:36;;;;;;;;;;;;;;;7.19;48.28;94173.38;5004586;28;19921;-75
2021/11/01 10:30:04;;;;;;;;;;;;;;;8.39;46.08;94165.44;5004694;28;19932;-75
2021/11/01 10:32:37;;;;;;;;;;;;;;;8.51;45.99;94163.03;5006582;28;19917;-74
2021/11/01 10:35:09;;;;;;;;;;;;;;;7.96;46.53;94156.72;5006221;28;20330;-74
2021/11/01 10:37:36;;;;;;;;;;;;;;;7.82;47.43;94160.34;5005019;28;19975;-74
2021/11/01 10:40:05;;;;;;;;;;;;;;;8.76;44.93;94157.16;4988521;28;19957;-73
2021/11/01 10:42:34;;;;;;;;;;;;;;;8.50;45.71;94156.91;5005848;28;20012;-74
2021/11/01 11:12:11;;;;;;;;;;;;;;;7.49;47.80;94140.56;5005205;28;19924;-74
2021/11/01 11:14:50;;;;;;;;;;;;;;;8.39;45.58;94142.41;5004177;28;19921;-73
2021/11/01 11:17:33;;;;;;;;;;;;;;;7.86;46.72;94154.44;5004478;28;19913;-73
2021/11/01 11:23:01;;;;;;;;;;;;;;;7.30;49.32;94150.00;5005257;28;19917;-74
2021/11/01 11:47:11;;;;;;;;;;;;;;;8.80;47.43;94140.63;5004629;28;20046;-74
2021/11/01 11:49:36;;;;;;;;;;;;;;;9.26;47.63;94145.34;5003474;28;19961;-75
2021/11/01 11:52:20;;;;;;;;;;;;;;;9.30;47.89;94135.94;5003062;28;19941;-74
2021/11/01 11:54:55;;;;;;;;;;;;;;;9.13;47.59;94138.19;5004679;28;19921;-75
2021/11/01 11:57:25;;;;;;;;;;;;;;;9.05;46.90;94140.03;5005032;28;19921;-74
2021/11/01 11:59:51;;;;;;;;;;;;;;;9.36;46.46;94129.81;5002822;28;20452;-74
2021/11/01 12:02:29;;;;;;;;;;;;;;;9.47;45.30;94115.06;5003301;28;19969;-74
2021/11/01 12:05:03;;;;;;;;;;;;;;;8.72;47.52;94126.72;5005058;28;19917;-74
2021/11/01 12:07:29;;;;;;;;;;;;;;;9.17;45.90;94120.84;5003057;28;19953;-75
2021/11/01 12:09:57;;;;;;;;;;;;;;;8.78;47.05;94121.41;4989985;28;19976;-74
2021/11/01 12:17:23;;;;;;;;;;;;;;;9.49;44.69;94115.69;5003469;28;19948;-74
2021/11/01 12:19:48;;;;;;;;;;;;;;;9.74;43.64;94122.16;5002867;28;20302;-74
2021/11/01 12:22:26;;;;;;;;;;;;;;;10.21;43.27;94111.38;5002322;28;20462;-74
2021/11/01 12:24:52;;;;;;;;;;;;;;;10.61;40.90;94110.31;5004993;28;19932;-75
2021/11/01 12:27:18;;;;;;;;;;;;;;;9.72;42.65;94106.41;5002759;28;19918;-74
2021/11/01 12:29:43;;;;;;;;;;;;;;;10.48;40.39;94092.59;5002795;28;19929;-75
2021/11/01 12:32:12;;;;;;;;;;;;;;;10.81;39.62;94096.06;5003103;28;20294;-74
2021/11/01 12:34:49;;;;;;;;;;;;;;;9.78;41.17;94107.41;5004359;28;19922;-73
2021/11/01 12:37:19;;;;;;;;;;;;;;;9.06;43.34;94107.19;5004606;28;20398;-71
2021/11/01 12:39:56;;;;;;;;;;;;;;;9.33;42.18;94114.28;5002970;28;20536;-73
2021/11/01 12:58:29;;;;;;;;;;;;;;;8.62;43.86;94112.03;5002435;28;19928;-73
2021/11/01 13:00:55;;;;;;;;;;;;;;;11.66;37.73;94107.16;4986467;28;19924;-73
2021/11/01 13:03:21;;;;;;;;;;;;;;;11.90;37.23;94091.31;5003659;28;20008;-72
2021/11/01 13:05:54;;;;;;;;;;;;;;;11.48;36.30;94102.63;5004153;28;20028;-74
2021/11/01 13:08:26;;;;;;;;;;;;;;;13.26;32.89;94103.59;5002376;28;20000;-70
2021/11/01 13:10:57;;;;;;;;;;;;;;;15.09;30.96;94092.66;5001309;28;20233;-73
2021/11/01 13:13:43;;;;;;;;;;;;;;;16.92;27.14;94090.34;5003111;28;19981;-73
2021/11/01 13:19:11;;;;;;;;;;;;;;;16.21;28.35;94088.28;5003421;28;20529;-73
2021/11/01 13:21:58;;;;;;;;;;;;;;;14.91;29.87;94110.59;5003949;28;20068;-73
2021/11/01 13:24:48;;;;;;;;;;;;;;;12.56;33.54;94109.38;5007056;28;19990;-73
2021/11/01 13:27:53;;;;;;;;;;;;;;;11.48;36.19;94114.13;4994280;28;19922;-72
2021/11/01 13:36:08;;;;;;;;;;;;;;;10.58;38.46;94119.53;5005872;28;20013;-74
2021/11/01 13:38:33;;;;;;;;;;;;;;;10.91;37.64;94099.03;5007037;28;20370;-73
2021/11/01 13:40:59;;;;;;;;;;;;;;;11.55;37.69;94103.38;4989569;28;19921;-76
2021/11/01 13:43:28;;;;;;;;;;;;;;;11.87;36.83;94092.56;5006611;28;20023;-74
2021/11/01 13:45:53;;;;;;;;;;;;;;;11.12;38.50;94094.38;5005635;28;19979;-74
2021/11/01 13:48:25;;;;;;;;;;;;;;;9.99;40.12;94093.03;5007365;28;19917;-73
2021/11/01 13:50:59;;;;;;;;;;;;;;;10.86;38.14;94093.53;5005462;28;19925;-74
2021/11/01 13:53:24;;;;;;;;;;;;;;;13.39;34.50;94081.97;5005926;28;20076;-73
2021/11/01 13:55:56;;;;;;;;;;;;;;;15.27;30.88;94083.56;5005755;28;20447;-74
2021/11/01 14:10:52;;;;;;;;;;;;;;;19.85;24.77;94065.56;5005879;28;20052;-72
2021/11/01 15:26:53;;;;;;;;;;;;;;;20.52;20.80;94060.16;4993722;28;20350;-74
2021/11/01 16:19:52;;;;;;;;;;;;;;;8.09;42.06;94095.00;5004490;28;20304;-76
2021/11/01 16:22:18;;;;;;;;;;;;;;;8.28;41.31;94095.25;5004302;28;20063;-74
2021/11/01 16:24:43;;;;;;;;;;;;;;;7.86;42.78;94104.09;5004833;28;19922;-76
2021/11/01 16:27:09;;;;;;;;;;;;;;;8.03;42.09;94098.47;5002691;28;19943;-74
2021/11/01 16:34:55;;;;;;;;;;;;;;;7.91;42.45;94103.50;5004184;28;19963;-74
2021/11/01 16:37:25;;;;;;;;;;;;;;;7.73;43.10;94107.50;5003213;28;20370;-75
2021/11/01 16:39:51;;;;;;;;;;;;;;;7.61;43.78;94101.09;5003961;28;19918;-74
2021/11/01 16:42:17;;;;;;;;;;;;;;;7.13;44.41;94100.03;5002349;28;19918;-75
2021/11/01 16:44:43;;;;;;;;;;;;;;;7.36;43.86;94093.66;5002800;28;20012;-73
2021/11/01 16:47:09;;;;;;;;;;;;;;;7.54;43.62;94093.97;5002674;28;19957;-74
2021/11/01 16:49:34;;;;;;;;;;;;;;;7.48;43.64;94089.44;5004185;28;19922;-75
2021/11/01 16:52:09;;;;;;;;;;;;;;;7.11;44.74;94094.91;5003597;28;19921;-75
2021/11/01 16:54:36;;;;;;;;;;;;;;;7.23;44.24;94095.22;5002439;28;19932;-75
2021/11/01 16:57:15;;;;;;;;;;;;;;;6.96;45.06;94105.63;5004403;28;19918;-75
2021/11/01 17:02:22;;;;;;;;;;;;;;;6.99;44.72;94107.88;5007705;28;19923;-74
2021/11/01 17:04:54;;;;;;;;;;;;;;;6.93;44.47;94100.69;5006854;28;19935;-74
2021/11/01 17:07:33;;;;;;;;;;;;;;;6.91;44.05;94113.31;5006358;28;20016;-74
2021/11/01 17:37:08;;;;;;;;;;;;;;;6.56;45.09;94110.59;4986687;28;19929;-73
2021/11/01 18:40:34;;;;;;;;;;;;;;;5.64;49.07;94140.84;5004799;28;19972;-73
2021/11/01 18:43:29;;;;;;;;;;;;;;;5.57;50.14;94139.94;5005939;28;19971;-74
2021/11/01 18:51:06;;;;;;;;;;;;;;;5.66;49.04;94135.41;5004618;28;20099;-73
2021/11/01 18:53:35;;;;;;;;;;;;;;;5.70;48.77;94136.66;5004659;28;19918;-74
2021/11/01 18:56:02;;;;;;;;;;;;;;;5.48;49.49;94131.31;5004009;28;19921;-74
2021/11/01 18:58:27;;;;;;;;;;;;;;;5.58;48.50;94125.75;5005576;28;19921;-74
2021/11/01 19:00:55;;;;;;;;;;;;;;;5.79;48.02;94124.19;5005951;28;19941;-74
2021/11/01 19:03:22;;;;;;;;;;;;;;;5.74;48.00;94125.56;5003810;28;19922;-73
2021/11/01 20:05:09;;;;;;;;;;;;;;;5.21;49.43;94097.44;5003327;28;19944;-62
2021/11/01 21:27:02;;;;;;;;;;;;;;;4.84;59.63;94107.84;5000794;28;19918;-64
2021/11/01 21:29:27;;;;;;;;;;;;;;;4.77;59.33;94106.09;5004399;28;19924;-63
2021/11/01 21:31:52;;;;;;;;;;;;;;;4.71;59.44;94111.09;5004095;28;19921;-64
2021/11/01 21:34:27;;;;;;;;;;;;;;;4.71;59.43;94113.75;5003974;28;19951;-62
2021/11/01 21:36:53;;;;;;;;;;;;;;;4.57;59.69;94111.88;5004349;28;19929;-63
2021/11/01 21:39:18;;;;;;;;;;;;;;;4.55;60.00;94100.69;5004350;28;19921;-63
2021/11/01 21:41:43;;;;;;;;;;;;;;;4.43;58.06;94103.72;5004522;28;20488;-63
2021/11/01 21:44:09;;;;;;;;;;;;;;;4.43;58.98;94092.38;5005489;28;19921;-64
2021/11/01 21:46:34;;;;;;;;;;;;;;;4.48;59.79;94094.47;5007365;28;19952;-63
2021/11/01 21:48:59;;;;;;;;;;;;;;;4.48;59.69;94099.75;5007649;28;20024;-63
2021/11/01 21:51:26;;;;;;;;;;;;;;;4.37;60.04;94090.44;5006544;28;19960;-65
2021/11/01 21:54:02;;;;;;;;;;;;;;;4.28;60.15;94087.88;5006727;28;20079;-63
2021/11/01 21:56:30;;;;;;;;;;;;;;;4.35;60.46;94087.19;5005921;28;20036;-63
2021/11/01 21:59:25;;;;;;;;;;;;;;;4.26;61.11;94083.78;5007321;28;19924;-64
2021/11/01 22:09:41;;;;;;;;;;;;;;;4.30;60.89;94087.72;5007211;28;19917;-64
2021/11/01 22:18:04;;;;;;;;;;;;;;;4.19;61.19;94076.56;5013900;28;19925;-65
2021/11/01 22:20:31;;;;;;;;;;;;;;;4.20;60.86;94077.41;4987559;28;20322;-64
2021/11/01 22:23:44;;;;;;;;;;;;;;;4.23;60.79;94073.59;4993509;28;19932;-65
2021/11/01 22:25:52;;;;;;;;;;;;;;;4.26;60.83;94068.81;4980844;28;20017;-65
2021/11/01 22:42:27;;;;;;;;;;;;;;;4.52;61.58;94056.25;5006437;28;19932;-60
2021/11/01 22:55:57;;;;;;;;;;;;;;;4.84;60.51;94055.09;5006502;28;20121;-64
2021/11/01 22:58:23;;;;;;;;;;;;;;;5.06;60.96;94052.59;5005817;28;19932;-62
2021/11/01 23:00:55;;;;;;;;;;;;;;;5.26;60.52;94045.94;5006442;28;20134;-64
2021/11/01 23:03:26;;;;;;;;;;;;;;;5.37;59.50;94040.19;5005638;28;19926;-64
2021/11/01 23:33:04;;;;;;;;;;;;;;;6.49;56.17;94018.81;5006370;28;20317;-62
2021/11/01 23:35:30;;;;;;;;;;;;;;;6.52;54.37;94022.88;5005290;28;19921;-63
2021/11/01 23:37:55;;;;;;;;;;;;;;;6.61;56.67;94015.63;5005443;28;20354;-64
2021/11/01 23:40:20;;;;;;;;;;;;;;;6.48;53.05;94017.19;5005558;28;19932;-64
2021/11/01 23:42:45;;;;;;;;;;;;;;;6.28;56.68;94016.13;5005305;28;19918;-64
2021/11/01 23:45:11;;;;;;;;;;;;;;;6.47;57.28;94012.84;5005516;28;19948;-63
2021/11/01 23:47:36;;;;;;;;;;;;;;;6.62;54.66;94009.31;5005288;28;19917;-65
2021/11/01 23:50:02;;;;;;;;;;;;;;;6.70;56.36;94011.03;5005144;28;20444;-63
2021/11/01 23:52:35;;;;;;;;;;;;;;;6.87;55.67;94008.91;5005396;28;19909;-63
2021/11/01 23:55:00;;;;;;;;;;;;;;;6.82;55.43;93998.88;5005169;28;20279;-64
2021/11/01 23:57:25;;;;;;;;;;;;;;;7.02;54.60;94004.31;5005556;28;20241;-64
2021/11/01 23:59:51;;;;;;;;;;;;;;;7.05;55.16;94002.25;5005081;28;19961;-62
